sensor_id;sensor_type;location;lat;lon;timestamp;pressure;altitude;pressure_sealevel;temperature;humidity
50368;BME280;36281;34.132;-118.018;2023-01-27T00:01:45;100973.56;;;20.89;21.15
50368;BME280;36281;34.132;-118.018;2023-01-27T00:04:15;100969.50;;;20.86;21.10
50368;BME280;36281;34.132;-118.018;2023-01-27T00:06:44;100967.56;;;20.82;21.46
50368;BME280;36281;34.132;-118.018;2023-01-27T00:09:12;100967.00;;;20.80;21.61
50368;BME280;36281;34.132;-118.018;2023-01-27T00:11:43;100960.75;;;20.74;21.87
50368;BME280;36281;34.132;-118.018;2023-01-27T00:14:33;100966.09;;;20.69;21.93
50368;BME280;36281;34.132;-118.018;2023-01-27T00:17:02;100964.38;;;20.63;22.44
50368;BME280;36281;34.132;-118.018;2023-01-27T00:19:34;100960.81;;;20.57;22.38
50368;BME280;36281;34.132;-118.018;2023-01-27T00:22:03;100968.03;;;20.52;22.34
50368;BME280;36281;34.132;-118.018;2023-01-27T00:24:51;100967.13;;;20.46;22.30
50368;BME280;36281;34.132;-118.018;2023-01-27T00:27:20;100957.91;;;20.42;23.50
50368;BME280;36281;34.132;-118.018;2023-01-27T00:29:52;100955.69;;;20.34;23.72
50368;BME280;36281;34.132;-118.018;2023-01-27T00:32:22;100963.69;;;20.29;22.95
50368;BME280;36281;34.132;-118.018;2023-01-27T00:35:09;100971.59;;;20.19;24.46
50368;BME280;36281;34.132;-118.018;2023-01-27T00:37:38;100969.91;;;20.12;24.89
50368;BME280;36281;34.132;-118.018;2023-01-27T00:40:07;100972.19;;;20.04;24.32
50368;BME280;36281;34.132;-118.018;2023-01-27T00:42:40;100975.66;;;19.99;23.90
50368;BME280;36281;34.132;-118.018;2023-01-27T00:45:11;100982.00;;;19.93;23.93
50368;BME280;36281;34.132;-118.018;2023-01-27T00:47:59;100990.50;;;19.85;24.24
50368;BME280;36281;34.132;-118.018;2023-01-27T00:50:28;100994.97;;;19.79;25.44
50368;BME280;36281;34.132;-118.018;2023-01-27T00:52:57;100998.06;;;19.71;25.79
50368;BME280;36281;34.132;-118.018;2023-01-27T00:55:30;101003.28;;;19.61;24.78
50368;BME280;36281;34.132;-118.018;2023-01-27T00:57:59;101002.56;;;19.54;24.02
50368;BME280;36281;34.132;-118.018;2023-01-27T01:00:32;101002.75;;;19.47;24.40
50368;BME280;36281;34.132;-118.018;2023-01-27T01:03:01;101011.19;;;19.39;24.90
50368;BME280;36281;34.132;-118.018;2023-01-27T01:05:30;101013.47;;;19.30;25.15
50368;BME280;36281;34.132;-118.018;2023-01-27T01:08:00;101013.03;;;19.22;25.82
50368;BME280;36281;34.132;-118.018;2023-01-27T01:10:28;101019.50;;;19.09;25.79
50368;BME280;36281;34.132;-118.018;2023-01-27T01:12:57;101017.22;;;19.01;25.23
50368;BME280;36281;34.132;-118.018;2023-01-27T01:15:27;101017.03;;;18.91;25.46
50368;BME280;36281;34.132;-118.018;2023-01-27T01:17:58;101011.66;;;18.79;25.82
50368;BME280;36281;34.132;-118.018;2023-01-27T01:20:27;101015.31;;;18.73;26.40
50368;BME280;36281;34.132;-118.018;2023-01-27T01:22:56;101022.44;;;18.55;27.03
50368;BME280;36281;34.132;-118.018;2023-01-27T01:25:25;101028.41;;;18.34;29.70
50368;BME280;36281;34.132;-118.018;2023-01-27T01:27:55;101022.84;;;18.12;30.69
50368;BME280;36281;34.132;-118.018;2023-01-27T01:30:24;101037.38;;;17.93;29.67
50368;BME280;36281;34.132;-118.018;2023-01-27T01:32:55;101034.34;;;17.77;30.42
50368;BME280;36281;34.132;-118.018;2023-01-27T01:35:27;101033.56;;;17.58;30.74
50368;BME280;36281;34.132;-118.018;2023-01-27T01:37:56;101040.09;;;17.51;29.75
50368;BME280;36281;34.132;-118.018;2023-01-27T01:40:25;101040.63;;;17.41;28.88
50368;BME280;36281;34.132;-118.018;2023-01-27T01:42:55;101038.41;;;17.38;28.66
50368;BME280;36281;34.132;-118.018;2023-01-27T01:45:42;101041.38;;;17.30;29.34
50368;BME280;36281;34.132;-118.018;2023-01-27T01:48:14;101042.63;;;17.16;31.10
50368;BME280;36281;34.132;-118.018;2023-01-27T01:50:50;101047.91;;;17.04;32.45
50368;BME280;36281;34.132;-118.018;2023-01-27T01:53:21;101046.00;;;16.93;32.23
50368;BME280;36281;34.132;-118.018;2023-01-27T01:55:56;101051.06;;;16.83;32.98
50368;BME280;36281;34.132;-118.018;2023-01-27T01:58:31;101058.47;;;16.62;33.67
50368;BME280;36281;34.132;-118.018;2023-01-27T02:01:02;101056.91;;;16.54;32.72
50368;BME280;36281;34.132;-118.018;2023-01-27T02:03:32;101064.38;;;16.46;32.81
50368;BME280;36281;34.132;-118.018;2023-01-27T02:06:07;101050.38;;;16.25;33.44
50368;BME280;36281;34.132;-118.018;2023-01-27T02:08:37;101056.22;;;16.16;34.69
50368;BME280;36281;34.132;-118.018;2023-01-27T02:11:17;101053.63;;;16.09;34.14
50368;BME280;36281;34.132;-118.018;2023-01-27T02:13:52;101057.84;;;15.98;35.03
50368;BME280;36281;34.132;-118.018;2023-01-27T02:16:21;101054.84;;;15.88;35.93
50368;BME280;36281;34.132;-118.018;2023-01-27T02:18:50;101049.59;;;15.75;35.79
50368;BME280;36281;34.132;-118.018;2023-01-27T02:21:22;101051.09;;;15.64;36.09
50368;BME280;36281;34.132;-118.018;2023-01-27T02:23:54;101052.34;;;15.55;35.96
50368;BME280;36281;34.132;-118.018;2023-01-27T02:26:27;101047.13;;;15.42;36.20
50368;BME280;36281;34.132;-118.018;2023-01-27T02:28:58;101064.41;;;15.33;36.54
50368;BME280;36281;34.132;-118.018;2023-01-27T02:31:28;101067.09;;;15.26;37.64
50368;BME280;36281;34.132;-118.018;2023-01-27T02:33:59;101060.41;;;15.17;37.60
50368;BME280;36281;34.132;-118.018;2023-01-27T02:36:32;101072.34;;;15.01;37.76
50368;BME280;36281;34.132;-118.018;2023-01-27T02:39:03;101069.13;;;14.92;38.73
50368;BME280;36281;34.132;-118.018;2023-01-27T02:41:38;101086.97;;;14.85;38.08
50368;BME280;36281;34.132;-118.018;2023-01-27T02:44:09;101083.06;;;14.81;37.41
50368;BME280;36281;34.132;-118.018;2023-01-27T02:46:40;101071.63;;;14.74;38.99
50368;BME280;36281;34.132;-118.018;2023-01-27T02:49:09;101082.50;;;14.66;38.86
50368;BME280;36281;34.132;-118.018;2023-01-27T02:51:38;101078.63;;;14.62;37.97
50368;BME280;36281;34.132;-118.018;2023-01-27T02:54:11;101065.53;;;14.54;39.57
50368;BME280;36281;34.132;-118.018;2023-01-27T02:56:44;101069.41;;;14.44;39.81
50368;BME280;36281;34.132;-118.018;2023-01-27T02:59:13;101080.69;;;14.40;39.30
50368;BME280;36281;34.132;-118.018;2023-01-27T03:01:41;101070.66;;;14.29;39.41
50368;BME280;36281;34.132;-118.018;2023-01-27T03:04:13;101072.69;;;14.27;39.45
50368;BME280;36281;34.132;-118.018;2023-01-27T03:06:42;101069.63;;;14.16;39.21
50368;BME280;36281;34.132;-118.018;2023-01-27T03:09:11;101069.22;;;14.06;40.46
50368;BME280;36281;34.132;-118.018;2023-01-27T03:11:43;101072.91;;;13.99;40.37
50368;BME280;36281;34.132;-118.018;2023-01-27T03:14:31;101076.00;;;13.89;40.56
50368;BME280;36281;34.132;-118.018;2023-01-27T03:17:18;101078.63;;;13.82;41.14
50368;BME280;36281;34.132;-118.018;2023-01-27T03:20:08;101076.78;;;13.69;41.06
50368;BME280;36281;34.132;-118.018;2023-01-27T03:22:38;101076.78;;;13.63;42.00
50368;BME280;36281;34.132;-118.018;2023-01-27T03:25:08;101086.19;;;13.59;42.03
50368;BME280;36281;34.132;-118.018;2023-01-27T03:27:40;101085.16;;;13.53;42.14
50368;BME280;36281;34.132;-118.018;2023-01-27T03:30:10;101088.81;;;13.45;43.03
50368;BME280;36281;34.132;-118.018;2023-01-27T03:32:39;101082.00;;;13.36;42.40
50368;BME280;36281;34.132;-118.018;2023-01-27T03:35:14;101088.53;;;13.27;43.33
50368;BME280;36281;34.132;-118.018;2023-01-27T03:37:48;101086.84;;;13.19;43.68
50368;BME280;36281;34.132;-118.018;2023-01-27T03:40:35;101085.59;;;13.09;43.10
50368;BME280;36281;34.132;-118.018;2023-01-27T03:43:25;101087.19;;;13.03;43.69
50368;BME280;36281;34.132;-118.018;2023-01-27T03:46:17;101070.97;;;12.91;43.36
50368;BME280;36281;34.132;-118.018;2023-01-27T03:48:49;101071.97;;;12.84;43.88
50368;BME280;36281;34.132;-118.018;2023-01-27T03:51:22;101072.72;;;12.78;44.12
50368;BME280;36281;34.132;-118.018;2023-01-27T03:53:52;101082.31;;;12.72;44.63
50368;BME280;36281;34.132;-118.018;2023-01-27T03:56:23;101081.09;;;12.68;44.76
50368;BME280;36281;34.132;-118.018;2023-01-27T03:58:55;101074.91;;;12.61;44.60
50368;BME280;36281;34.132;-118.018;2023-01-27T04:01:27;101066.69;;;12.56;45.66
50368;BME280;36281;34.132;-118.018;2023-01-27T04:03:55;101072.78;;;12.50;45.13
50368;BME280;36281;34.132;-118.018;2023-01-27T04:06:43;101074.19;;;12.46;45.18
50368;BME280;36281;34.132;-118.018;2023-01-27T04:09:22;101078.88;;;12.44;45.95
50368;BME280;36281;34.132;-118.018;2023-01-27T04:11:52;101078.25;;;12.41;45.73
50368;BME280;36281;34.132;-118.018;2023-01-27T04:14:31;101086.19;;;12.35;46.29
50368;BME280;36281;34.132;-118.018;2023-01-27T04:17:01;101085.13;;;12.29;45.13
50368;BME280;36281;34.132;-118.018;2023-01-27T04:19:33;101087.13;;;12.27;45.88
50368;BME280;36281;34.132;-118.018;2023-01-27T04:22:04;101083.22;;;12.23;45.65
50368;BME280;36281;34.132;-118.018;2023-01-27T04:24:34;101082.78;;;12.20;46.25
50368;BME280;36281;34.132;-118.018;2023-01-27T04:27:05;101079.06;;;12.14;46.74
50368;BME280;36281;34.132;-118.018;2023-01-27T04:29:37;101079.66;;;12.09;46.25
50368;BME280;36281;34.132;-118.018;2023-01-27T04:32:10;101079.56;;;12.03;46.62
50368;BME280;36281;34.132;-118.018;2023-01-27T04:34:44;101077.69;;;11.97;46.72
50368;BME280;36281;34.132;-118.018;2023-01-27T04:37:13;101073.59;;;11.94;46.25
50368;BME280;36281;34.132;-118.018;2023-01-27T04:39:43;101077.84;;;11.88;46.68
50368;BME280;36281;34.132;-118.018;2023-01-27T04:42:13;101082.88;;;11.83;46.57
50368;BME280;36281;34.132;-118.018;2023-01-27T04:44:47;101073.44;;;11.81;46.92
50368;BME280;36281;34.132;-118.018;2023-01-27T04:47:16;101072.16;;;11.77;46.50
50368;BME280;36281;34.132;-118.018;2023-01-27T04:49:45;101086.00;;;11.72;47.03
50368;BME280;36281;34.132;-118.018;2023-01-27T04:52:18;101097.38;;;11.66;47.16
50368;BME280;36281;34.132;-118.018;2023-01-27T04:54:48;101101.88;;;11.65;47.63
50368;BME280;36281;34.132;-118.018;2023-01-27T04:57:17;101100.59;;;11.61;47.34
50368;BME280;36281;34.132;-118.018;2023-01-27T04:59:49;101110.75;;;11.58;47.47
50368;BME280;36281;34.132;-118.018;2023-01-27T05:02:17;101107.47;;;11.56;47.34
50368;BME280;36281;34.132;-118.018;2023-01-27T05:04:50;101114.56;;;11.49;47.68
50368;BME280;36281;34.132;-118.018;2023-01-27T05:07:20;101109.63;;;11.46;48.52
50368;BME280;36281;34.132;-118.018;2023-01-27T05:09:49;101109.56;;;11.39;47.60
50368;BME280;36281;34.132;-118.018;2023-01-27T05:12:18;101117.41;;;11.32;48.50
50368;BME280;36281;34.132;-118.018;2023-01-27T05:14:47;101108.81;;;11.30;49.03
50368;BME280;36281;34.132;-118.018;2023-01-27T05:17:20;101114.22;;;11.22;49.12
50368;BME280;36281;34.132;-118.018;2023-01-27T05:19:48;101114.97;;;11.16;48.19
50368;BME280;36281;34.132;-118.018;2023-01-27T05:22:16;101115.72;;;11.10;47.97
50368;BME280;36281;34.132;-118.018;2023-01-27T05:24:46;101118.72;;;11.07;48.98
50368;BME280;36281;34.132;-118.018;2023-01-27T05:27:15;101114.78;;;11.03;48.28
50368;BME280;36281;34.132;-118.018;2023-01-27T05:29:47;101113.34;;;11.00;48.33
50368;BME280;36281;34.132;-118.018;2023-01-27T05:32:21;101111.06;;;10.97;48.32
50368;BME280;36281;34.132;-118.018;2023-01-27T05:34:50;101105.13;;;10.95;48.97
50368;BME280;36281;34.132;-118.018;2023-01-27T05:37:19;101106.69;;;10.90;48.76
50368;BME280;36281;34.132;-118.018;2023-01-27T05:39:48;101117.00;;;10.84;49.13
50368;BME280;36281;34.132;-118.018;2023-01-27T05:42:21;101118.00;;;10.83;49.46
50368;BME280;36281;34.132;-118.018;2023-01-27T05:44:50;101120.00;;;10.81;49.53
50368;BME280;36281;34.132;-118.018;2023-01-27T05:47:25;101122.19;;;10.78;49.62
50368;BME280;36281;34.132;-118.018;2023-01-27T05:49:53;101126.69;;;10.77;49.72
50368;BME280;36281;34.132;-118.018;2023-01-27T05:52:22;101117.09;;;10.76;48.94
50368;BME280;36281;34.132;-118.018;2023-01-27T05:54:52;101127.69;;;10.76;48.73
50368;BME280;36281;34.132;-118.018;2023-01-27T05:57:21;101134.81;;;10.76;48.18
50368;BME280;36281;34.132;-118.018;2023-01-27T05:59:52;101130.88;;;10.72;48.38
50368;BME280;36281;34.132;-118.018;2023-01-27T06:02:21;101132.91;;;10.70;49.48
50368;BME280;36281;34.132;-118.018;2023-01-27T06:04:54;101136.09;;;10.65;49.82
50368;BME280;36281;34.132;-118.018;2023-01-27T06:07:23;101141.75;;;10.62;49.66
50368;BME280;36281;34.132;-118.018;2023-01-27T06:09:52;101147.78;;;10.56;50.01
50368;BME280;36281;34.132;-118.018;2023-01-27T06:12:22;101143.19;;;10.50;50.25
50368;BME280;36281;34.132;-118.018;2023-01-27T06:14:51;101149.84;;;10.46;50.73
50368;BME280;36281;34.132;-118.018;2023-01-27T06:17:23;101159.63;;;10.45;50.32
50368;BME280;36281;34.132;-118.018;2023-01-27T06:19:55;101152.56;;;10.38;50.71
50368;BME280;36281;34.132;-118.018;2023-01-27T06:22:24;101148.63;;;10.33;50.75
50368;BME280;36281;34.132;-118.018;2023-01-27T06:24:53;101152.81;;;10.28;51.38
50368;BME280;36281;34.132;-118.018;2023-01-27T06:27:21;101152.47;;;10.23;52.10
50368;BME280;36281;34.132;-118.018;2023-01-27T06:29:51;101159.13;;;10.19;52.39
50368;BME280;36281;34.132;-118.018;2023-01-27T06:32:23;101148.16;;;10.07;52.59
50368;BME280;36281;34.132;-118.018;2023-01-27T06:34:55;101144.88;;;10.05;52.69
50368;BME280;36281;34.132;-118.018;2023-01-27T06:37:27;101149.38;;;9.96;52.58
50368;BME280;36281;34.132;-118.018;2023-01-27T06:39:56;101151.72;;;9.91;53.04
50368;BME280;36281;34.132;-118.018;2023-01-27T06:42:25;101144.31;;;9.87;53.22
50368;BME280;36281;34.132;-118.018;2023-01-27T06:44:53;101149.31;;;9.81;53.12
50368;BME280;36281;34.132;-118.018;2023-01-27T06:47:24;101142.72;;;9.77;53.45
50368;BME280;36281;34.132;-118.018;2023-01-27T06:49:56;101143.44;;;9.71;54.12
50368;BME280;36281;34.132;-118.018;2023-01-27T06:52:25;101144.59;;;9.69;54.05
50368;BME280;36281;34.132;-118.018;2023-01-27T06:54:55;101139.66;;;9.66;54.38
50368;BME280;36281;34.132;-118.018;2023-01-27T06:57:26;101141.47;;;9.65;54.26
50368;BME280;36281;34.132;-118.018;2023-01-27T06:59:57;101138.03;;;9.65;54.30
50368;BME280;36281;34.132;-118.018;2023-01-27T07:02:26;101136.88;;;9.59;54.66
50368;BME280;36281;34.132;-118.018;2023-01-27T07:04:58;101130.94;;;9.57;54.43
50368;BME280;36281;34.132;-118.018;2023-01-27T07:07:27;101136.41;;;9.55;54.54
50368;BME280;36281;34.132;-118.018;2023-01-27T07:09:56;101134.28;;;9.51;54.12
50368;BME280;36281;34.132;-118.018;2023-01-27T07:12:26;101131.78;;;9.49;54.30
50368;BME280;36281;34.132;-118.018;2023-01-27T07:14:55;101125.03;;;9.47;54.34
50368;BME280;36281;34.132;-118.018;2023-01-27T07:17:25;101112.03;;;9.37;54.61
50368;BME280;36281;34.132;-118.018;2023-01-27T07:19:54;101126.41;;;9.35;54.66
50368;BME280;36281;34.132;-118.018;2023-01-27T07:22:28;101121.50;;;9.31;55.48
50368;BME280;36281;34.132;-118.018;2023-01-27T07:24:58;101115.53;;;9.29;55.71
50368;BME280;36281;34.132;-118.018;2023-01-27T07:27:28;101114.41;;;9.24;56.06
50368;BME280;36281;34.132;-118.018;2023-01-27T07:29:58;101113.28;;;9.18;57.01
50368;BME280;36281;34.132;-118.018;2023-01-27T07:32:27;101112.78;;;9.15;57.05
50368;BME280;36281;34.132;-118.018;2023-01-27T07:34:56;101119.44;;;9.11;56.46
50368;BME280;36281;34.132;-118.018;2023-01-27T07:37:30;101120.78;;;9.06;56.46
50368;BME280;36281;34.132;-118.018;2023-01-27T07:39:59;101116.81;;;9.02;56.76
50368;BME280;36281;34.132;-118.018;2023-01-27T07:42:29;101112.69;;;9.00;56.54
50368;BME280;36281;34.132;-118.018;2023-01-27T07:44:58;101105.94;;;8.97;56.78
50368;BME280;36281;34.132;-118.018;2023-01-27T07:47:28;101100.00;;;8.95;56.90
50368;BME280;36281;34.132;-118.018;2023-01-27T07:49:57;101100.53;;;8.91;56.77
50368;BME280;36281;34.132;-118.018;2023-01-27T07:52:29;101093.94;;;8.87;56.97
50368;BME280;36281;34.132;-118.018;2023-01-27T07:54:58;101092.13;;;8.79;57.53
50368;BME280;36281;34.132;-118.018;2023-01-27T07:57:26;101090.28;;;8.79;57.89
50368;BME280;36281;34.132;-118.018;2023-01-27T07:59:55;101086.00;;;8.78;57.77
50368;BME280;36281;34.132;-118.018;2023-01-27T08:02:27;101079.28;;;8.76;58.08
50368;BME280;36281;34.132;-118.018;2023-01-27T08:04:57;101087.34;;;8.74;57.90
50368;BME280;36281;34.132;-118.018;2023-01-27T08:07:26;101075.50;;;8.70;57.76
50368;BME280;36281;34.132;-118.018;2023-01-27T08:09:56;101081.59;;;8.71;57.49
50368;BME280;36281;34.132;-118.018;2023-01-27T08:12:26;101077.28;;;8.70;57.20
50368;BME280;36281;34.132;-118.018;2023-01-27T08:14:55;101074.00;;;8.68;57.23
50368;BME280;36281;34.132;-118.018;2023-01-27T08:17:23;101063.00;;;8.56;57.82
50368;BME280;36281;34.132;-118.018;2023-01-27T08:19:53;101074.69;;;8.62;58.09
50368;BME280;36281;34.132;-118.018;2023-01-27T08:22:22;101069.09;;;8.57;57.57
50368;BME280;36281;34.132;-118.018;2023-01-27T08:24:52;101065.78;;;8.54;57.75
50368;BME280;36281;34.132;-118.018;2023-01-27T08:27:24;101060.03;;;8.51;57.79
50368;BME280;36281;34.132;-118.018;2023-01-27T08:29:54;101061.34;;;8.47;58.08
50368;BME280;36281;34.132;-118.018;2023-01-27T08:32:25;101052.44;;;8.40;58.41
50368;BME280;36281;34.132;-118.018;2023-01-27T08:34:57;101056.72;;;8.33;59.10
50368;BME280;36281;34.132;-118.018;2023-01-27T08:37:26;101048.16;;;8.31;59.05
50368;BME280;36281;34.132;-118.018;2023-01-27T08:39:55;101044.53;;;8.23;59.15
50368;BME280;36281;34.132;-118.018;2023-01-27T08:42:27;101039.56;;;8.20;59.41
50368;BME280;36281;34.132;-118.018;2023-01-27T08:44:57;101046.66;;;8.20;59.16
50368;BME280;36281;34.132;-118.018;2023-01-27T08:47:28;101055.41;;;8.20;59.11
50368;BME280;36281;34.132;-118.018;2023-01-27T08:49:56;101042.06;;;8.14;59.25
50368;BME280;36281;34.132;-118.018;2023-01-27T08:52:26;101044.88;;;8.12;59.56
50368;BME280;36281;34.132;-118.018;2023-01-27T08:54:57;101038.28;;;8.08;59.82
50368;BME280;36281;34.132;-118.018;2023-01-27T08:57:29;101036.97;;;8.04;60.01
50368;BME280;36281;34.132;-118.018;2023-01-27T09:00:02;101040.78;;;8.01;61.29
50368;BME280;36281;34.132;-118.018;2023-01-27T09:02:32;101043.41;;;8.01;60.93
50368;BME280;36281;34.132;-118.018;2023-01-27T09:05:01;101039.44;;;7.97;60.85
50368;BME280;36281;34.132;-118.018;2023-01-27T09:07:31;101046.88;;;7.94;60.99
50368;BME280;36281;34.132;-118.018;2023-01-27T09:10:02;101037.81;;;7.88;60.91
50368;BME280;36281;34.132;-118.018;2023-01-27T09:12:43;101044.25;;;7.86;61.20
50368;BME280;36281;34.132;-118.018;2023-01-27T09:15:12;101043.56;;;7.84;61.44
50368;BME280;36281;34.132;-118.018;2023-01-27T09:17:41;101041.25;;;7.81;61.57
50368;BME280;36281;34.132;-118.018;2023-01-27T09:20:11;101045.38;;;7.75;61.27
50368;BME280;36281;34.132;-118.018;2023-01-27T09:22:40;101036.63;;;7.74;61.16
50368;BME280;36281;34.132;-118.018;2023-01-27T09:25:11;101038.63;;;7.72;61.87
50368;BME280;36281;34.132;-118.018;2023-01-27T09:27:46;101040.59;;;7.70;61.48
50368;BME280;36281;34.132;-118.018;2023-01-27T09:30:16;101039.75;;;7.70;61.46
50368;BME280;36281;34.132;-118.018;2023-01-27T09:32:44;101030.69;;;7.64;62.06
50368;BME280;36281;34.132;-118.018;2023-01-27T09:35:18;101029.06;;;7.63;61.60
50368;BME280;36281;34.132;-118.018;2023-01-27T09:37:48;101023.78;;;7.63;61.73
50368;BME280;36281;34.132;-118.018;2023-01-27T09:40:27;101026.44;;;7.63;61.36
50368;BME280;36281;34.132;-118.018;2023-01-27T09:48:35;101008.78;;;7.64;60.53
50368;BME280;36281;34.132;-118.018;2023-01-27T09:51:10;101005.16;;;7.65;60.24
50368;BME280;36281;34.132;-118.018;2023-01-27T09:56:35;100998.91;;;7.58;60.09
50368;BME280;36281;34.132;-118.018;2023-01-27T10:01:53;100999.72;;;7.50;60.23
50368;BME280;36281;34.132;-118.018;2023-01-27T10:04:35;100995.44;;;7.49;60.42
50368;BME280;36281;34.132;-118.018;2023-01-27T10:07:12;100990.00;;;7.42;61.24
50368;BME280;36281;34.132;-118.018;2023-01-27T10:09:56;100991.47;;;7.37;61.79
50368;BME280;36281;34.132;-118.018;2023-01-27T10:12:42;100993.78;;;7.32;61.33
50368;BME280;36281;34.132;-118.018;2023-01-27T10:15:16;100983.25;;;7.32;61.44
50368;BME280;36281;34.132;-118.018;2023-01-27T10:17:52;100986.38;;;7.27;61.30
50368;BME280;36281;34.132;-118.018;2023-01-27T10:20:31;100982.56;;;7.21;61.20
50368;BME280;36281;34.132;-118.018;2023-01-27T10:23:09;100991.78;;;7.17;62.09
50368;BME280;36281;34.132;-118.018;2023-01-27T10:25:43;100985.19;;;7.13;62.51
50368;BME280;36281;34.132;-118.018;2023-01-27T10:28:19;100991.75;;;7.09;62.80
50368;BME280;36281;34.132;-118.018;2023-01-27T10:30:53;100990.28;;;7.07;62.10
50368;BME280;36281;34.132;-118.018;2023-01-27T10:33:35;100986.16;;;7.04;62.70
50368;BME280;36281;34.132;-118.018;2023-01-27T10:36:13;100974.63;;;6.97;62.55
50368;BME280;36281;34.132;-118.018;2023-01-27T10:38:45;100973.78;;;6.96;62.27
50368;BME280;36281;34.132;-118.018;2023-01-27T10:41:18;100966.03;;;6.95;62.62
50368;BME280;36281;34.132;-118.018;2023-01-27T10:43:53;100962.25;;;6.89;63.00
50368;BME280;36281;34.132;-118.018;2023-01-27T10:46:28;100955.63;;;6.85;63.04
50368;BME280;36281;34.132;-118.018;2023-01-27T10:49:05;100953.34;;;6.82;63.68
50368;BME280;36281;34.132;-118.018;2023-01-27T10:51:38;100961.25;;;6.82;62.97
50368;BME280;36281;34.132;-118.018;2023-01-27T10:54:10;100966.50;;;6.82;63.39
50368;BME280;36281;34.132;-118.018;2023-01-27T10:56:40;100957.09;;;6.80;62.97
50368;BME280;36281;34.132;-118.018;2023-01-27T10:59:15;100951.84;;;6.80;62.57
50368;BME280;36281;34.132;-118.018;2023-01-27T11:01:50;100940.97;;;6.74;62.97
50368;BME280;36281;34.132;-118.018;2023-01-27T11:04:24;100948.03;;;6.74;62.97
50368;BME280;36281;34.132;-118.018;2023-01-27T11:06:57;100942.13;;;6.72;62.18
50368;BME280;36281;34.132;-118.018;2023-01-27T11:09:27;100944.06;;;6.70;62.50
50368;BME280;36281;34.132;-118.018;2023-01-27T11:11:57;100935.34;;;6.69;62.45
50368;BME280;36281;34.132;-118.018;2023-01-27T11:14:28;100940.63;;;6.69;63.01
50368;BME280;36281;34.132;-118.018;2023-01-27T11:17:00;100932.56;;;6.71;62.02
50368;BME280;36281;34.132;-118.018;2023-01-27T11:19:37;100925.50;;;6.71;62.10
50368;BME280;36281;34.132;-118.018;2023-01-27T11:22:16;100926.47;;;6.70;62.39
50368;BME280;36281;34.132;-118.018;2023-01-27T11:24:46;100915.28;;;6.68;62.46
50368;BME280;36281;34.132;-118.018;2023-01-27T11:27:19;100922.19;;;6.69;61.55
50368;BME280;36281;34.132;-118.018;2023-01-27T11:29:53;100913.31;;;6.70;61.73
50368;BME280;36281;34.132;-118.018;2023-01-27T11:32:27;100913.81;;;6.74;60.75
50368;BME280;36281;34.132;-118.018;2023-01-27T11:35:00;100906.91;;;6.73;61.13
50368;BME280;36281;34.132;-118.018;2023-01-27T11:37:34;100907.91;;;6.72;61.38
50368;BME280;36281;34.132;-118.018;2023-01-27T11:40:03;100911.66;;;6.69;61.49
50368;BME280;36281;34.132;-118.018;2023-01-27T11:42:33;100912.66;;;6.68;61.33
50368;BME280;36281;34.132;-118.018;2023-01-27T11:45:03;100897.16;;;6.65;61.39
50368;BME280;36281;34.132;-118.018;2023-01-27T11:47:33;100901.09;;;6.61;61.84
50368;BME280;36281;34.132;-118.018;2023-01-27T11:50:06;100905.06;;;6.57;61.93
50368;BME280;36281;34.132;-118.018;2023-01-27T11:52:38;100907.69;;;6.57;61.83
50368;BME280;36281;34.132;-118.018;2023-01-27T11:55:14;100903.03;;;6.51;62.00
50368;BME280;36281;34.132;-118.018;2023-01-27T11:57:45;100897.31;;;6.47;62.73
50368;BME280;36281;34.132;-118.018;2023-01-27T12:00:18;100899.41;;;6.44;62.99
50368;BME280;36281;34.132;-118.018;2023-01-27T12:02:50;100891.84;;;6.41;62.65
50368;BME280;36281;34.132;-118.018;2023-01-27T12:05:24;100892.31;;;6.36;63.52
50368;BME280;36281;34.132;-118.018;2023-01-27T12:08:01;100898.91;;;6.32;63.56
50368;BME280;36281;34.132;-118.018;2023-01-27T12:10:31;100901.19;;;6.27;63.81
50368;BME280;36281;34.132;-118.018;2023-01-27T12:13:07;100899.03;;;6.22;63.78
50368;BME280;36281;34.132;-118.018;2023-01-27T12:15:36;100904.75;;;6.18;63.78
50368;BME280;36281;34.132;-118.018;2023-01-27T12:18:15;100904.69;;;6.10;63.90
50368;BME280;36281;34.132;-118.018;2023-01-27T12:20:45;100907.78;;;6.05;64.67
50368;BME280;36281;34.132;-118.018;2023-01-27T12:23:23;100895.81;;;6.03;64.61
50368;BME280;36281;34.132;-118.018;2023-01-27T12:25:55;100897.91;;;5.99;64.71
50368;BME280;36281;34.132;-118.018;2023-01-27T12:28:28;100903.16;;;5.99;64.63
50368;BME280;36281;34.132;-118.018;2023-01-27T12:31:01;100898.06;;;5.98;64.33
50368;BME280;36281;34.132;-118.018;2023-01-27T12:33:34;100895.59;;;5.96;64.50
50368;BME280;36281;34.132;-118.018;2023-01-27T12:36:10;100890.50;;;5.94;64.28
50368;BME280;36281;34.132;-118.018;2023-01-27T12:38:48;100892.31;;;5.94;64.05
50368;BME280;36281;34.132;-118.018;2023-01-27T12:41:19;100882.44;;;5.96;64.92
50368;BME280;36281;34.132;-118.018;2023-01-27T12:43:51;100894.63;;;5.97;63.90
50368;BME280;36281;34.132;-118.018;2023-01-27T12:46:21;100878.34;;;5.93;64.10
50368;BME280;36281;34.132;-118.018;2023-01-27T12:48:50;100878.50;;;5.92;65.08
50368;BME280;36281;34.132;-118.018;2023-01-27T12:51:21;100881.22;;;5.90;64.57
50368;BME280;36281;34.132;-118.018;2023-01-27T12:54:12;100882.91;;;5.91;64.98
50368;BME280;36281;34.132;-118.018;2023-01-27T12:56:43;100890.09;;;5.89;65.00
50368;BME280;36281;34.132;-118.018;2023-01-27T12:59:12;100872.53;;;5.90;64.72
50368;BME280;36281;34.132;-118.018;2023-01-27T13:01:43;100892.47;;;5.92;64.59